Time;durP1;ratioP1;P1;durP2;ratioP2;P2;SDS_P1;SDS_P2;PMS_P1;PMS_P2;Temp;Humidity;BMP_temperature;BMP_pressure;BME280_temperature;BME280_humidity;BME280_pressure;Samples;Min_cycle;Max_cycle;Signal;HPM_P1;HPM_P2
2021/12/18 00:01:11;;;;;;;17.43;12.07;;;3.40;99.90;;;;;;6300428;28;20469;-67
2021/12/18 00:04:14;;;;;;;12.67;10.83;;;3.40;99.90;;;;;;6299783;28;20484;-68
2021/12/18 00:07:18;;;;;;;15.70;12.77;;;3.50;99.90;;;;;;6300481;28;20460;-64
2021/12/18 00:10:23;;;;;;;13.90;11.30;;;3.50;99.90;;;;;;6299691;28;20448;-63
2021/12/18 00:13:27;;;;;;;15.77;10.67;;;3.50;99.90;;;;;;6299070;28;20469;-65
2021/12/18 00:16:31;;;;;;;15.17;12.00;;;3.50;99.90;;;;;;6290679;28;20448;-67
2021/12/18 00:19:34;;;;;;;13.83;10.77;;;3.40;99.90;;;;;;6299872;28;20467;-67
2021/12/18 00:22:37;;;;;;;14.30;10.57;;;3.40;99.90;;;;;;6300949;28;20480;-65
2021/12/18 00:25:40;;;;;;;13.93;11.57;;;3.40;99.90;;;;;;6296735;28;20457;-66
2021/12/18 00:28:47;;;;;;;13.10;10.97;;;3.40;99.90;;;;;;6299824;28;20472;-65
2021/12/18 00:31:51;;;;;;;12.90;11.60;;;3.40;99.90;;;;;;6300205;28;20476;-65
2021/12/18 00:34:54;;;;;;;15.30;11.07;;;3.30;99.90;;;;;;6300081;28;20480;-65
2021/12/18 00:37:57;;;;;;;17.47;13.87;;;3.30;99.90;;;;;;6300453;28;20484;-65
2021/12/18 00:41:14;;;;;;;12.67;11.10;;;3.30;99.90;;;;;;6307665;28;20461;-65
2021/12/18 00:44:18;;;;;;;17.67;12.30;;;3.30;99.90;;;;;;6279681;28;20974;-68
2021/12/18 00:47:22;;;;;;;20.20;13.67;;;3.20;99.90;;;;;;6279491;28;20466;-66
2021/12/18 00:50:29;;;;;;;15.70;11.80;;;3.20;99.90;;;;;;6280683;28;20820;-67
2021/12/18 00:53:32;;;;;;;15.43;12.53;;;3.20;99.90;;;;;;6280144;28;20478;-65
2021/12/18 00:56:35;;;;;;;22.40;14.70;;;3.20;99.90;;;;;;6291764;28;20499;-65
2021/12/18 00:59:40;;;;;;;15.20;12.13;;;3.20;99.90;;;;;;6304582;28;20472;-65
2021/12/18 01:02:44;;;;;;;18.10;14.37;;;3.20;99.90;;;;;;6303765;28;20472;-65
2021/12/18 01:05:48;;;;;;;16.67;12.53;;;3.10;99.90;;;;;;6285092;28;20481;-65
2021/12/18 01:08:55;;;;;;;17.17;14.53;;;3.10;99.90;;;;;;6293763;28;20546;-65
2021/12/18 01:11:58;;;;;;;20.93;14.37;;;3.10;99.90;;;;;;6307696;28;21319;-65
2021/12/18 01:15:14;;;;;;;17.83;13.30;;;3.10;99.90;;;;;;6310236;28;20469;-64
2021/12/18 01:24:59;;;;;;;15.80;12.47;;;3.10;99.90;;;;;;6304200;28;20489;-64
2021/12/18 01:28:02;;;;;;;17.90;12.90;;;3.10;99.90;;;;;;6305981;28;20480;-64
2021/12/18 01:31:09;;;;;;;14.23;12.50;;;3.00;99.90;;;;;;6304656;28;20961;-66
2021/12/18 01:34:12;;;;;;;13.47;11.80;;;3.10;99.90;;;;;;6303021;28;20908;-65
2021/12/18 01:37:15;;;;;;;15.87;12.27;;;3.00;99.90;;;;;;6303124;28;20465;-65
2021/12/18 01:40:21;;;;;;;12.70;10.40;;;3.00;99.90;;;;;;6302633;28;20453;-65
2021/12/18 01:47:07;;;;;;;12.50;11.20;;;3.00;99.90;;;;;;6316771;28;20573;-63
2021/12/18 01:53:32;;;;;;;17.23;10.20;;;2.90;99.90;;;;;;6296457;28;20466;-64
2021/12/18 01:56:35;;;;;;;15.10;10.20;;;2.90;99.90;;;;;;6296817;28;20476;-64
2021/12/18 01:59:42;;;;;;;14.50;11.33;;;2.90;99.90;;;;;;6294557;28;20968;-64
2021/12/18 02:02:47;;;;;;;10.47;9.27;;;2.90;99.90;;;;;;6264583;28;20466;-63
2021/12/18 02:05:51;;;;;;;10.53;8.83;;;2.90;99.90;;;;;;6251945;28;20479;-64
2021/12/18 02:08:54;;;;;;;10.90;9.47;;;2.90;99.90;;;;;;6245925;28;20494;-63
2021/12/18 02:11:59;;;;;;;11.10;9.00;;;2.90;99.90;;;;;;6292057;28;20480;-64
2021/12/18 02:22:02;;;;;;;21.83;16.80;;;2.60;99.90;;;;;;6243042;28;20479;-63
2021/12/18 02:25:07;;;;;;;23.13;16.37;;;2.30;99.90;;;;;;6267281;28;20845;-63
2021/12/18 02:28:16;;;;;;;21.80;16.30;;;2.10;99.90;;;;;;6271794;28;20478;-64
2021/12/18 02:31:20;;;;;;;26.10;17.53;;;1.80;99.90;;;;;;6271269;28;20508;-64
2021/12/18 02:34:27;;;;;;;25.13;17.17;;;1.60;99.90;;;;;;6270659;28;20466;-64
2021/12/18 02:37:39;;;;;;;32.77;16.20;;;1.50;99.90;;;;;;6271631;28;20779;-64
2021/12/18 02:40:57;;;;;;;25.53;15.37;;;1.40;99.90;;;;;;6271524;28;20466;-64
2021/12/18 02:44:02;;;;;;;28.53;16.97;;;1.20;99.90;;;;;;6270851;28;20981;-64
2021/12/18 02:47:06;;;;;;;24.87;17.33;;;1.00;99.90;;;;;;6270228;28;20467;-63
2021/12/18 02:50:10;;;;;;;25.50;16.70;;;1.10;99.90;;;;;;6269985;28;20466;-64
2021/12/18 02:53:14;;;;;;;20.77;15.00;;;1.20;99.90;;;;;;6270633;28;20474;-64
2021/12/18 02:56:23;;;;;;;21.40;16.50;;;1.30;99.90;;;;;;6265264;28;20477;-65
2021/12/18 02:59:26;;;;;;;22.37;14.90;;;1.50;99.90;;;;;;6254044;28;20795;-64
2021/12/18 03:02:34;;;;;;;20.93;16.07;;;1.60;99.90;;;;;;6253040;28;20478;-65
2021/12/18 03:05:45;;;;;;;25.97;17.50;;;1.80;99.90;;;;;;6254916;28;20856;-65
2021/12/18 03:08:59;;;;;;;18.00;15.70;;;1.90;99.90;;;;;;6256432;28;20479;-65
2021/12/18 03:19:25;;;;;;;17.80;14.20;;;2.00;99.90;;;;;;6280545;28;20474;-65
2021/12/18 03:26:00;;;;;;;19.73;15.40;;;2.10;99.90;;;;;;6224910;28;20784;-64
2021/12/18 03:29:03;;;;;;;16.43;14.63;;;2.00;99.90;;;;;;6262353;28;20482;-64
2021/12/18 03:32:07;;;;;;;17.93;14.53;;;2.00;99.90;;;;;;6277770;28;20478;-64
2021/12/18 03:35:11;;;;;;;20.20;15.10;;;2.00;99.90;;;;;;6278055;28;20470;-64
2021/12/18 03:38:14;;;;;;;16.53;13.77;;;1.90;99.90;;;;;;6277752;28;20466;-64
2021/12/18 03:41:19;;;;;;;15.70;13.70;;;2.00;99.90;;;;;;6277422;28;20818;-65
2021/12/18 03:44:22;;;;;;;21.00;15.57;;;2.00;99.90;;;;;;6276991;28;20482;-64
2021/12/18 03:47:25;;;;;;;16.63;13.20;;;2.00;99.90;;;;;;6277705;28;20477;-64
2021/12/18 03:50:28;;;;;;;20.50;14.30;;;2.00;99.90;;;;;;6277338;28;20470;-65
2021/12/18 03:53:32;;;;;;;17.27;15.10;;;1.90;99.90;;;;;;6277156;28;20508;-64
2021/12/18 03:56:36;;;;;;;18.30;13.17;;;1.90;99.90;;;;;;6277371;28;20470;-64
2021/12/18 03:59:39;;;;;;;18.00;14.87;;;1.90;99.90;;;;;;6276781;28;20470;-65
2021/12/18 04:02:42;;;;;;;18.47;13.60;;;1.90;99.90;;;;;;6271495;28;20785;-65
2021/12/18 04:05:46;;;;;;;16.13;13.60;;;1.90;99.90;;;;;;6252339;28;20479;-65
2021/12/18 04:08:49;;;;;;;16.80;12.73;;;1.90;99.90;;;;;;6251094;28;20943;-65
2021/12/18 04:11:53;;;;;;;18.93;13.80;;;1.90;99.90;;;;;;6273754;28;20485;-65
2021/12/18 04:14:56;;;;;;;20.20;13.00;;;2.00;99.90;;;;;;6276657;28;20474;-65
2021/12/18 04:18:00;;;;;;;12.67;10.40;;;1.90;99.90;;;;;;6276494;28;20489;-64
2021/12/18 04:21:03;;;;;;;16.33;11.53;;;1.90;99.90;;;;;;6276828;28;20474;-65
2021/12/18 04:24:06;;;;;;;14.20;11.87;;;1.90;99.90;;;;;;6276490;28;20516;-64
2021/12/18 04:27:11;;;;;;;17.33;13.17;;;1.80;99.90;;;;;;6276170;28;20497;-65
2021/12/18 04:30:14;;;;;;;14.90;12.43;;;1.80;99.90;;;;;;6275882;28;20863;-65
2021/12/18 04:33:18;;;;;;;16.00;14.30;;;1.80;99.90;;;;;;6266646;28;20501;-64
2021/12/18 04:36:21;;;;;;;17.47;14.30;;;1.80;99.90;;;;;;6276537;28;20521;-64
2021/12/18 04:39:24;;;;;;;16.30;12.70;;;1.70;99.90;;;;;;6276293;28;20470;-65
2021/12/18 04:42:29;;;;;;;18.07;13.40;;;1.70;99.90;;;;;;6276118;28;20476;-65
2021/12/18 04:45:32;;;;;;;20.50;14.60;;;1.70;99.90;;;;;;6275474;28;20860;-64
2021/12/18 04:48:35;;;;;;;15.63;13.00;;;1.70;99.90;;;;;;6275638;28;20786;-65
2021/12/18 04:51:38;;;;;;;14.00;12.40;;;1.60;99.90;;;;;;6275881;28;20470;-65
2021/12/18 04:54:41;;;;;;;14.40;12.57;;;1.60;99.90;;;;;;6276285;28;20986;-65
2021/12/18 04:57:46;;;;;;;20.53;13.67;;;1.50;99.90;;;;;;6275484;28;20953;-65
2021/12/18 05:00:49;;;;;;;19.33;12.57;;;1.50;99.90;;;;;;6276286;28;20481;-65
2021/12/18 05:03:53;;;;;;;16.23;12.73;;;1.30;99.90;;;;;;6260929;28;20471;-64
2021/12/18 05:06:57;;;;;;;19.90;15.10;;;1.20;99.90;;;;;;6251451;28;20562;-65
2021/12/18 05:10:00;;;;;;;13.07;10.90;;;1.20;99.90;;;;;;6258583;28;20461;-65
2021/12/18 05:13:05;;;;;;;15.70;12.60;;;1.20;99.90;;;;;;6276564;28;20478;-64
2021/12/18 05:16:08;;;;;;;15.03;11.50;;;1.20;99.90;;;;;;6275616;28;20469;-65
2021/12/18 05:19:12;;;;;;;16.23;11.67;;;1.30;99.90;;;;;;6274796;28;20470;-64
2021/12/18 05:22:15;;;;;;;11.37;10.00;;;1.40;99.90;;;;;;6275533;28;20531;-64
2021/12/18 05:25:18;;;;;;;10.97;9.60;;;1.40;99.90;;;;;;6274917;28;20523;-65
2021/12/18 05:28:22;;;;;;;12.60;9.30;;;1.40;99.90;;;;;;6275350;28;20486;-65
2021/12/18 05:31:26;;;;;;;10.23;9.03;;;1.50;99.90;;;;;;6275709;28;20439;-64
2021/12/18 05:34:36;;;;;;;11.63;9.60;;;1.50;99.90;;;;;;6269809;28;20477;-64
2021/12/18 05:37:48;;;;;;;9.80;8.63;;;1.50;99.90;;;;;;6274894;28;20485;-64
2021/12/18 05:40:51;;;;;;;9.47;8.53;;;1.50;99.90;;;;;;6274923;28;20480;-65
2021/12/18 05:43:56;;;;;;;10.30;9.20;;;1.50;99.90;;;;;;6274849;28;20477;-64
2021/12/18 05:47:00;;;;;;;14.80;10.50;;;1.50;99.90;;;;;;6275580;28;20553;-64
2021/12/18 05:50:04;;;;;;;11.20;9.90;;;1.50;99.90;;;;;;6274962;28;20466;-62
2021/12/18 05:53:07;;;;;;;14.00;10.40;;;1.50;99.90;;;;;;6274587;28;20477;-62
2021/12/18 05:56:10;;;;;;;12.07;10.57;;;1.60;99.90;;;;;;6274994;28;20461;-62
2021/12/18 05:59:14;;;;;;;12.33;9.93;;;1.60;99.90;;;;;;6275163;28;20470;-62
2021/12/18 06:02:18;;;;;;;14.20;10.83;;;1.60;99.90;;;;;;6272730;28;20473;-62
2021/12/18 06:05:21;;;;;;;14.30;9.97;;;1.60;99.90;;;;;;6250247;28;20486;-62
2021/12/18 06:08:24;;;;;;;12.80;8.40;;;1.60;99.90;;;;;;6249882;28;20479;-62
2021/12/18 06:11:31;;;;;;;12.60;9.50;;;1.60;99.90;;;;;;6268675;28;20485;-62
2021/12/18 06:14:35;;;;;;;13.57;11.40;;;1.60;99.90;;;;;;6274206;28;20992;-62
2021/12/18 06:17:39;;;;;;;15.73;12.00;;;1.50;99.90;;;;;;6274556;28;20477;-62
2021/12/18 06:20:42;;;;;;;16.47;12.67;;;1.40;99.90;;;;;;6275051;28;20556;-62
2021/12/18 06:23:48;;;;;;;15.13;11.37;;;1.30;99.90;;;;;;6274678;28;20478;-62
2021/12/18 06:26:51;;;;;;;19.63;14.20;;;1.30;99.90;;;;;;6274429;28;20489;-62
2021/12/18 06:29:55;;;;;;;19.13;13.50;;;1.10;99.90;;;;;;6274493;28;20477;-62
2021/12/18 06:32:58;;;;;;;16.20;12.33;;;1.10;99.90;;;;;;6278083;28;20470;-62
2021/12/18 06:36:03;;;;;;;16.37;12.37;;;1.00;99.90;;;;;;6278932;28;20564;-62
2021/12/18 06:39:06;;;;;;;28.00;13.00;;;0.80;99.90;;;;;;6279136;28;20547;-62
2021/12/18 06:42:09;;;;;;;15.53;12.60;;;0.90;99.90;;;;;;6278881;28;20473;-62
2021/12/18 06:45:14;;;;;;;18.90;12.40;;;0.80;99.90;;;;;;6278362;28;20822;-62
2021/12/18 06:48:17;;;;;;;17.23;12.93;;;0.90;99.90;;;;;;6278332;28;20498;-62
2021/12/18 06:51:21;;;;;;;17.73;13.20;;;0.90;99.90;;;;;;6278566;28;20977;-62
2021/12/18 06:54:24;;;;;;;17.93;13.80;;;0.90;99.90;;;;;;6279284;28;20483;-62
2021/12/18 06:57:27;;;;;;;21.03;14.63;;;0.90;99.90;;;;;;6278959;28;20469;-62
2021/12/18 07:00:32;;;;;;;25.20;14.10;;;0.70;99.90;;;;;;6278341;28;20996;-62
2021/12/18 07:03:35;;;;;;;20.30;15.40;;;0.70;99.90;;;;;;6278591;28;20478;-62
2021/12/18 07:06:39;;;;;;;23.37;14.33;;;0.70;99.90;;;;;;6255411;28;20821;-62
2021/12/18 07:09:42;;;;;;;23.40;17.00;;;0.70;99.90;;;;;;6258830;28;20465;-62
2021/12/18 07:12:45;;;;;;;21.60;14.40;;;0.60;99.90;;;;;;6278998;28;20469;-62
2021/12/18 07:15:51;;;;;;;25.00;15.17;;;0.60;99.90;;;;;;6280591;28;20481;-60
2021/12/18 07:18:54;;;;;;;17.70;13.30;;;0.60;99.90;;;;;;6279419;28;20934;-61
2021/12/18 07:21:58;;;;;;;20.00;14.00;;;0.60;99.90;;;;;;6277930;28;20576;-61
2021/12/18 07:25:01;;;;;;;22.07;15.40;;;0.60;99.90;;;;;;6277927;28;20477;-62
2021/12/18 07:28:04;;;;;;;23.87;17.27;;;0.60;99.90;;;;;;6278017;28;20973;-62
2021/12/18 07:31:09;;;;;;;17.53;15.20;;;0.60;99.90;;;;;;6278065;28;20974;-62
2021/12/18 07:34:12;;;;;;;16.77;14.73;;;0.60;99.90;;;;;;6277787;28;20481;-62
2021/12/18 07:37:19;;;;;;;21.50;16.17;;;0.70;99.90;;;;;;6278256;28;20422;-62
2021/12/18 07:40:23;;;;;;;17.10;14.27;;;0.70;99.90;;;;;;6278801;28;20460;-62
2021/12/18 07:43:26;;;;;;;20.50;16.07;;;0.60;99.90;;;;;;6265500;28;20462;-62
2021/12/18 07:46:31;;;;;;;16.80;14.63;;;0.60;99.90;;;;;;6278048;28;20478;-64
2021/12/18 07:49:34;;;;;;;27.73;15.33;;;0.80;99.90;;;;;;6278670;28;20778;-62
2021/12/18 07:52:37;;;;;;;25.70;18.00;;;0.90;99.90;;;;;;6277584;28;20774;-62
2021/12/18 07:55:40;;;;;;;17.53;14.40;;;1.00;99.90;;;;;;6277791;28;20458;-62
2021/12/18 07:58:43;;;;;;;19.50;15.20;;;1.10;99.90;;;;;;6277569;28;20458;-62
2021/12/18 08:01:48;;;;;;;22.73;17.40;;;1.20;99.90;;;;;;6278001;28;20481;-62
2021/12/18 08:04:51;;;;;;;22.30;15.60;;;1.40;99.90;;;;;;6266803;28;20471;-62
2021/12/18 08:07:54;;;;;;;21.27;15.70;;;1.50;99.90;;;;;;6251808;28;20993;-63
2021/12/18 08:10:57;;;;;;;21.70;17.13;;;1.50;99.90;;;;;;6266957;28;20480;-63
2021/12/18 08:14:00;;;;;;;19.83;15.47;;;1.60;99.90;;;;;;6276831;28;20477;-62
2021/12/18 08:17:05;;;;;;;16.67;14.07;;;1.70;99.90;;;;;;6276784;28;20477;-62
2021/12/18 08:20:10;;;;;;;24.93;17.87;;;1.80;99.90;;;;;;6276841;28;20470;-62
2021/12/18 08:23:14;;;;;;;33.87;22.27;;;1.90;99.90;;;;;;6278186;28;20475;-63
2021/12/18 08:26:17;;;;;;;31.63;19.60;;;2.10;99.90;;;;;;6278980;28;20470;-63
2021/12/18 08:29:20;;;;;;;26.80;18.20;;;2.20;99.90;;;;;;6275925;28;20480;-63
2021/12/18 08:32:25;;;;;;;18.57;14.27;;;2.30;99.90;;;;;;6275611;28;20469;-62
2021/12/18 08:35:29;;;;;;;23.03;18.30;;;2.50;99.90;;;;;;6276021;28;20470;-62
2021/12/18 08:38:32;;;;;;;20.47;17.50;;;2.40;99.90;;;;;;6277725;28;20466;-62
2021/12/18 08:41:37;;;;;;;24.00;18.40;;;2.50;99.90;;;;;;6280162;28;20472;-62
2021/12/18 08:44:41;;;;;;;21.00;18.90;;;2.50;99.90;;;;;;6278515;28;20486;-62
2021/12/18 08:47:45;;;;;;;20.80;14.67;;;2.50;99.90;;;;;;6268276;28;20489;-62
2021/12/18 08:50:49;;;;;;;22.90;16.73;;;2.60;99.90;;;;;;6275875;28;20485;-62
2021/12/18 08:53:52;;;;;;;23.27;17.20;;;2.70;99.90;;;;;;6276403;28;20639;-62
2021/12/18 08:56:55;;;;;;;21.83;16.50;;;2.80;99.90;;;;;;6277533;28;20961;-62
2021/12/18 08:59:59;;;;;;;21.03;15.00;;;2.80;99.90;;;;;;6276594;28;20470;-62
2021/12/18 09:03:04;;;;;;;19.23;17.13;;;2.70;99.90;;;;;;6276866;28;20474;-62
2021/12/18 09:06:07;;;;;;;18.60;15.47;;;2.70;99.90;;;;;;6255307;28;20475;-62
2021/12/18 09:09:11;;;;;;;20.70;15.80;;;2.60;99.90;;;;;;6251626;28;20474;-62
2021/12/18 09:12:14;;;;;;;21.30;17.37;;;2.60;99.90;;;;;;6226963;28;20472;-62
2021/12/18 09:15:17;;;;;;;21.70;16.40;;;2.60;99.90;;;;;;6226542;28;20476;-63
2021/12/18 09:18:21;;;;;;;18.47;14.67;;;2.60;99.90;;;;;;6225836;28;20464;-62
2021/12/18 09:21:25;;;;;;;24.00;16.80;;;2.60;99.90;;;;;;6226200;28;20541;-62
2021/12/18 09:24:28;;;;;;;19.73;15.80;;;2.60;99.90;;;;;;6226082;28;20484;-62
2021/12/18 09:27:31;;;;;;;24.27;16.63;;;2.70;99.90;;;;;;6226185;28;20927;-62
2021/12/18 09:30:34;;;;;;;19.37;15.60;;;2.70;99.90;;;;;;6226644;28;20480;-63
2021/12/18 09:33:39;;;;;;;22.73;15.40;;;2.80;99.90;;;;;;6225970;28;20475;-63
2021/12/18 09:36:42;;;;;;;18.23;14.40;;;2.80;99.90;;;;;;6226781;28;20475;-63
2021/12/18 09:39:45;;;;;;;15.80;14.10;;;2.70;99.90;;;;;;6226330;28;20467;-63
2021/12/18 09:42:49;;;;;;;16.63;13.83;;;2.90;99.90;;;;;;6226545;28;20990;-63
2021/12/18 09:45:52;;;;;;;19.30;14.37;;;3.00;99.90;;;;;;6226219;28;20488;-63
2021/12/18 09:48:57;;;;;;;15.80;14.00;;;3.10;99.90;;;;;;6225981;28;20491;-61
2021/12/18 09:52:01;;;;;;;16.57;13.50;;;3.20;99.90;;;;;;6221393;28;20486;-61
2021/12/18 09:55:06;;;;;;;16.30;14.50;;;3.30;99.90;;;;;;6225549;28;20488;-62
2021/12/18 09:58:09;;;;;;;17.00;13.40;;;3.40;99.90;;;;;;6225742;28;20817;-62
2021/12/18 10:01:13;;;;;;;13.43;11.63;;;3.60;99.90;;;;;;6225307;28;20804;-62
2021/12/18 10:04:30;;;;;;;18.07;14.13;;;3.70;99.90;;;;;;6230873;28;20467;-62
2021/12/18 10:07:33;;;;;;;16.73;12.50;;;3.90;99.90;;;;;;6253170;28;20919;-62
2021/12/18 10:10:37;;;;;;;15.10;11.77;;;4.10;99.90;;;;;;6266828;28;20481;-62
2021/12/18 10:13:52;;;;;;;16.13;10.97;;;4.30;99.90;;;;;;6279264;28;20472;-62
2021/12/18 10:16:56;;;;;;;11.13;10.03;;;4.50;99.50;;;;;;6279736;28;20466;-62
2021/12/18 10:20:20;;;;;;;6.50;5.90;;;4.80;97.10;;;;;;6279900;28;20479;-63
2021/12/18 10:23:27;;;;;;;6.03;3.50;;;5.10;95.80;;;;;;6279747;28;20527;-62
2021/12/18 10:26:34;;;;;;;3.60;3.30;;;5.40;91.80;;;;;;6278791;28;20470;-62
2021/12/18 10:29:38;;;;;;;4.10;3.60;;;5.70;90.50;;;;;;6279206;28;20794;-63
2021/12/18 10:32:56;;;;;;;4.37;2.90;;;6.00;88.30;;;;;;6280932;28;20477;-65
2021/12/18 10:36:01;;;;;;;3.47;2.60;;;6.30;82.90;;;;;;6282081;28;20549;-66
2021/12/18 10:39:05;;;;;;;2.07;1.93;;;6.50;78.80;;;;;;6281863;28;20474;-66
2021/12/18 10:42:25;;;;;;;4.80;2.60;;;6.70;75.40;;;;;;6264810;28;20597;-66
2021/12/18 10:45:35;;;;;;;9.67;8.67;;;6.90;72.90;;;;;;6241898;28;20510;-66
2021/12/18 10:48:38;;;;;;;11.03;8.90;;;7.10;88.40;;;;;;6251716;28;20463;-66
2021/12/18 10:51:45;;;;;;;14.30;11.23;;;6.90;91.00;;;;;;6254938;28;20474;-66
2021/12/18 10:55:02;;;;;;;13.80;11.33;;;6.90;92.70;;;;;;6254725;28;20475;-66
2021/12/18 10:58:08;;;;;;;13.80;11.73;;;6.80;93.60;;;;;;6248646;28;20868;-64
2021/12/18 11:01:13;;;;;;;16.27;11.80;;;6.60;94.40;;;;;;6247904;28;20474;-64
2021/12/18 11:04:24;;;;;;;13.20;10.73;;;6.40;93.90;;;;;;6252396;28;20482;-65
2021/12/18 11:07:31;;;;;;;11.20;8.90;;;6.30;94.00;;;;;;6235764;28;20466;-66
2021/12/18 11:10:42;;;;;;;14.07;8.70;;;6.30;92.90;;;;;;6251221;28;20811;-65
2021/12/18 11:13:48;;;;;;;7.53;6.77;;;6.30;91.80;;;;;;6277823;28;20470;-65
2021/12/18 11:16:53;;;;;;;9.27;7.83;;;6.80;91.20;;;;;;6228436;28;20478;-65
2021/12/18 11:19:57;;;;;;;8.70;6.97;;;8.90;90.00;;;;;;6228601;28;20479;-67
2021/12/18 11:23:01;;;;;;;7.80;7.10;;;9.90;81.20;;;;;;6229131;28;20468;-65
2021/12/18 11:26:05;;;;;;;8.00;7.30;;;9.60;78.70;;;;;;6241248;28;20508;-65
2021/12/18 11:29:13;;;;;;;7.87;6.90;;;9.00;80.50;;;;;;6246613;28;20471;-65
2021/12/18 11:32:19;;;;;;;7.53;6.80;;;9.90;82.00;;;;;;6241880;28;20479;-65
2021/12/18 11:35:24;;;;;;;12.67;7.23;;;14.10;70.80;;;;;;6229619;28;20480;-67
2021/12/18 11:38:29;;;;;;;12.13;8.63;;;18.60;53.10;;;;;;6269557;28;20484;-67
2021/12/18 11:41:32;;;;;;;8.60;7.80;;;22.10;40.90;;;;;;6313546;28;20469;-67
2021/12/18 11:44:38;;;;;;;9.13;8.30;;;25.00;35.60;;;;;;6305226;28;20690;-62
2021/12/18 11:47:43;;;;;;;9.20;8.40;;;27.10;29.70;;;;;;6302201;28;20226;-62
2021/12/18 11:50:48;;;;;;;11.27;9.07;;;29.10;27.50;;;;;;6306346;28;20234;-68
2021/12/18 11:53:52;;;;;;;10.37;9.33;;;30.40;24.70;;;;;;6306762;28;20242;-68
2021/12/18 11:56:56;;;;;;;10.93;9.77;;;30.90;22.90;;;;;;6305950;28;20264;-67
2021/12/18 11:59:59;;;;;;;9.77;8.90;;;29.70;22.90;;;;;;6296007;28;20230;-67
2021/12/18 12:03:04;;;;;;;16.10;10.17;;;25.90;25.00;;;;;;6309416;28;20242;-65
2021/12/18 12:06:28;;;;;;;12.50;8.97;;;22.80;27.90;;;;;;6292875;28;20231;-65
2021/12/18 12:09:35;;;;;;;11.17;9.97;;;23.00;28.90;;;;;;6304508;28;20234;-65
2021/12/18 12:12:53;;;;;;;11.63;10.53;;;25.30;28.00;;;;;;6312632;28;20686;-65
2021/12/18 12:15:57;;;;;;;17.07;12.07;;;26.80;26.50;;;;;;6300990;28;20263;-67
2021/12/18 12:19:05;;;;;;;10.37;9.47;;;26.20;26.50;;;;;;6302074;28;20222;-65
2021/12/18 12:22:12;;;;;;;11.00;9.90;;;23.30;28.80;;;;;;6301035;28;20253;-63
2021/12/18 12:25:19;;;;;;;10.43;9.37;;;20.80;30.30;;;;;;6301260;28;20655;-63
2021/12/18 12:28:25;;;;;;;10.53;8.73;;;20.70;31.70;;;;;;6300292;28;20643;-65
2021/12/18 12:31:28;;;;;;;10.70;8.90;;;22.40;29.40;;;;;;6297944;28;20538;-64
2021/12/18 12:34:34;;;;;;;11.53;7.70;;;24.70;27.90;;;;;;6301007;28;20663;-63
2021/12/18 12:37:41;;;;;;;8.93;8.10;;;26.30;25.80;;;;;;6300896;28;20202;-65
2021/12/18 12:40:45;;;;;;;8.67;7.77;;;26.20;24.10;;;;;;6300836;28;20223;-64
2021/12/18 12:43:49;;;;;;;8.17;7.37;;;21.70;26.80;;;;;;6301060;28;20300;-64
2021/12/18 12:47:15;;;;;;;9.20;7.87;;;20.40;28.20;;;;;;6300857;28;20227;-65
2021/12/18 12:50:37;;;;;;;8.73;7.83;;;19.30;29.60;;;;;;6301651;28;20596;-65
2021/12/18 12:53:49;;;;;;;11.70;7.90;;;17.70;31.30;;;;;;6276831;28;20242;-63
2021/12/18 12:57:35;;;;;;;9.00;8.20;;;16.20;33.30;;;;;;6277136;28;20466;-67
2021/12/18 13:00:51;;;;;;;9.10;8.20;;;15.80;34.90;;;;;;6263954;28;20493;-67
2021/12/18 13:03:55;;;;;;;7.40;6.70;;;15.50;35.20;;;;;;6294599;28;20909;-67
2021/12/18 13:07:06;;;;;;;11.53;9.00;;;14.80;36.30;;;;;;6287574;28;20480;-68
2021/12/18 13:10:09;;;;;;;10.10;8.47;;;13.90;38.50;;;;;;6298913;28;20496;-68
2021/12/18 13:13:16;;;;;;;9.87;8.07;;;12.80;40.70;;;;;;6300299;28;20487;-68
2021/12/18 13:16:21;;;;;;;8.80;8.00;;;12.30;42.30;;;;;;6301622;28;20964;-68
2021/12/18 13:19:25;;;;;;;9.13;8.33;;;11.80;43.50;;;;;;6301904;28;20788;-69
2021/12/18 13:22:32;;;;;;;9.60;8.60;;;10.70;46.00;;;;;;6299039;28;20429;-68
2021/12/18 13:25:45;;;;;;;9.43;8.23;;;10.10;48.30;;;;;;6300256;28;20495;-67
2021/12/18 13:28:53;;;;;;;10.50;7.80;;;9.80;51.10;;;;;;6298256;28;20972;-63
2021/12/18 13:31:58;;;;;;;11.00;8.10;;;10.00;50.10;;;;;;6300445;28;20469;-70
2021/12/18 13:35:01;;;;;;;9.63;7.80;;;10.00;50.20;;;;;;6303269;28;20480;-67
2021/12/18 13:38:07;;;;;;;8.47;6.90;;;10.00;50.20;;;;;;6307401;28;20480;-67
2021/12/18 13:41:13;;;;;;;8.77;7.83;;;9.50;52.10;;;;;;6305117;28;20472;-67
2021/12/18 13:44:18;;;;;;;10.90;8.53;;;9.30;53.40;;;;;;6305585;28;20481;-67
2021/12/18 13:47:26;;;;;;;9.70;8.70;;;9.10;54.30;;;;;;6301750;28;20476;-67
2021/12/18 13:50:29;;;;;;;10.40;9.13;;;9.00;54.70;;;;;;6305908;28;21075;-67
2021/12/18 13:53:33;;;;;;;13.20;9.67;;;9.00;56.10;;;;;;6301856;28;20465;-65
2021/12/18 13:56:45;;;;;;;11.17;9.27;;;8.90;56.90;;;;;;6300066;28;20973;-66
2021/12/18 13:59:58;;;;;;;12.40;11.17;;;8.80;57.40;;;;;;6283831;28;20480;-65
2021/12/18 14:03:01;;;;;;;13.50;9.90;;;8.80;58.00;;;;;;6276509;28;20486;-65
2021/12/18 14:06:16;;;;;;;16.57;13.10;;;8.60;57.60;;;;;;6280594;28;20476;-65
2021/12/18 14:09:23;;;;;;;21.47;17.43;;;8.50;57.10;;;;;;6301544;28;20465;-66
2021/12/18 14:12:30;;;;;;;25.13;18.73;;;8.40;57.70;;;;;;6326451;28;20493;-65
2021/12/18 14:15:34;;;;;;;14.03;10.30;;;8.30;58.20;;;;;;6326378;28;20472;-65
2021/12/18 14:18:40;;;;;;;11.67;10.40;;;8.00;58.80;;;;;;6326959;28;20491;-65
2021/12/18 14:21:45;;;;;;;13.60;11.07;;;7.90;59.50;;;;;;6326258;28;20475;-66
2021/12/18 14:24:59;;;;;;;11.00;9.80;;;8.00;59.80;;;;;;6325030;28;20488;-65
2021/12/18 14:28:03;;;;;;;15.77;12.80;;;8.10;60.10;;;;;;6325119;28;20936;-65
2021/12/18 14:31:25;;;;;;;16.80;11.57;;;8.10;60.80;;;;;;6325394;28;20476;-65
2021/12/18 14:34:32;;;;;;;13.77;12.17;;;8.00;62.30;;;;;;6325256;28;20459;-65
2021/12/18 14:37:47;;;;;;;11.80;10.47;;;7.80;62.70;;;;;;6324368;28;20413;-65
2021/12/18 14:40:57;;;;;;;12.77;9.97;;;7.80;63.80;;;;;;6324588;28;20468;-65
2021/12/18 14:44:01;;;;;;;12.90;8.40;;;7.80;64.50;;;;;;6324510;28;20473;-66
2021/12/18 14:47:12;;;;;;;12.17;9.23;;;7.80;65.10;;;;;;6325173;28;20475;-65
2021/12/18 14:50:18;;;;;;;9.63;8.40;;;7.80;65.40;;;;;;6325020;28;20798;-66
2021/12/18 14:53:22;;;;;;;11.83;9.43;;;7.70;65.80;;;;;;6326775;28;20468;-67
2021/12/18 14:56:25;;;;;;;10.10;9.10;;;7.60;66.10;;;;;;6329374;28;20464;-66
2021/12/18 14:59:29;;;;;;;10.70;8.57;;;7.60;66.50;;;;;;6312074;28;20465;-66
2021/12/18 15:02:33;;;;;;;15.20;8.53;;;7.50;66.70;;;;;;6304333;28;20472;-65
2021/12/18 15:06:07;;;;;;;15.60;9.40;;;7.50;67.30;;;;;;6298091;28;20470;-65
2021/12/18 15:09:13;;;;;;;12.57;7.93;;;7.40;68.40;;;;;;6273400;28;20484;-65
2021/12/18 15:12:17;;;;;;;9.47;8.23;;;7.40;69.00;;;;;;6303294;28;20809;-65
2021/12/18 15:15:20;;;;;;;15.03;9.03;;;7.30;69.50;;;;;;6303483;28;20473;-65
2021/12/18 15:18:25;;;;;;;15.13;10.13;;;7.40;70.20;;;;;;6303121;28;20473;-65
2021/12/18 15:21:30;;;;;;;13.63;9.70;;;7.30;70.70;;;;;;6303144;28;20477;-64
2021/12/18 15:24:33;;;;;;;16.33;10.37;;;7.20;71.10;;;;;;6303115;28;20483;-64
2021/12/18 15:27:36;;;;;;;11.97;8.63;;;7.10;71.90;;;;;;6303327;28;20469;-65
2021/12/18 15:30:44;;;;;;;17.27;10.03;;;7.00;72.50;;;;;;6303033;28;20484;-65
2021/12/18 15:33:49;;;;;;;21.23;9.97;;;7.00;72.60;;;;;;6303084;28;20488;-64
2021/12/18 15:36:55;;;;;;;21.50;10.77;;;6.90;73.10;;;;;;6303144;28;20469;-64
2021/12/18 15:39:58;;;;;;;20.97;11.13;;;6.80;74.40;;;;;;6302840;28;20949;-65
2021/12/18 15:43:02;;;;;;;25.00;11.07;;;6.70;74.70;;;;;;6302786;28;20874;-65
2021/12/18 15:46:06;;;;;;;16.20;11.90;;;6.60;75.60;;;;;;6303131;28;20484;-65
2021/12/18 15:49:11;;;;;;;18.00;11.03;;;6.60;76.60;;;;;;6303876;28;20860;-65
2021/12/18 15:52:14;;;;;;;25.70;16.23;;;6.60;77.20;;;;;;6303912;28;20811;-65
2021/12/18 15:55:18;;;;;;;41.33;27.67;;;6.60;78.00;;;;;;6305223;28;20473;-66
2021/12/18 15:58:21;;;;;;;27.80;18.93;;;6.60;78.60;;;;;;6296925;28;20490;-66
2021/12/18 16:01:24;;;;;;;16.70;14.13;;;6.50;78.40;;;;;;6278273;28;20914;-66
2021/12/18 16:04:29;;;;;;;19.13;14.00;;;6.50;78.40;;;;;;6277403;28;20461;-65
2021/12/18 16:07:35;;;;;;;20.20;13.53;;;6.40;78.70;;;;;;6297716;28;20441;-65
2021/12/18 16:10:41;;;;;;;21.27;13.13;;;6.30;79.50;;;;;;6309695;28;20432;-65
2021/12/18 16:13:44;;;;;;;31.07;15.83;;;6.20;80.00;;;;;;6326839;28;20840;-65
2021/12/18 16:16:49;;;;;;;33.30;21.23;;;6.20;80.50;;;;;;6327364;28;20474;-66
2021/12/18 16:19:53;;;;;;;25.80;14.93;;;6.10;81.00;;;;;;6327220;28;20464;-66
2021/12/18 16:22:56;;;;;;;17.80;12.30;;;6.00;81.70;;;;;;6327091;28;20464;-65
2021/12/18 16:26:00;;;;;;;19.43;13.10;;;6.00;82.00;;;;;;6326999;28;20464;-65
2021/12/18 16:29:04;;;;;;;17.80;13.47;;;6.00;83.40;;;;;;6326435;28;20967;-65